sensor_id;sensor_type;location;lat;lon;timestamp;temperature;humidity
584;HTU21D;27024;54.068;12.116;2022-07-29T00:00:04;12.28;74.40
584;HTU21D;27024;54.068;12.116;2022-07-29T00:02:31;12.19;74.71
584;HTU21D;27024;54.068;12.116;2022-07-29T00:04:58;12.04;75.47
584;HTU21D;27024;54.068;12.116;2022-07-29T00:07:25;12.08;75.44
584;HTU21D;27024;54.068;12.116;2022-07-29T00:09:52;12.05;75.50
584;HTU21D;27024;54.068;12.116;2022-07-29T00:12:22;12.05;75.47
584;HTU21D;27024;54.068;12.116;2022-07-29T00:14:56;12.00;75.57
584;HTU21D;27024;54.068;12.116;2022-07-29T00:17:24;11.93;75.72
584;HTU21D;27024;54.068;12.116;2022-07-29T00:19:51;11.98;75.43
584;HTU21D;27024;54.068;12.116;2022-07-29T00:22:19;11.87;75.83
584;HTU21D;27024;54.068;12.116;2022-07-29T00:24:48;11.89;75.90
584;HTU21D;27024;54.068;12.116;2022-07-29T00:27:16;11.85;75.92
584;HTU21D;27024;54.068;12.116;2022-07-29T00:29:43;11.79;76.18
584;HTU21D;27024;54.068;12.116;2022-07-29T00:32:10;11.83;76.12
584;HTU21D;27024;54.068;12.116;2022-07-29T00:34:36;11.77;76.24
584;HTU21D;27024;54.068;12.116;2022-07-29T00:37:22;11.74;76.36
584;HTU21D;27024;54.068;12.116;2022-07-29T00:39:49;11.83;76.07
584;HTU21D;27024;54.068;12.116;2022-07-29T00:42:16;11.78;76.19
584;HTU21D;27024;54.068;12.116;2022-07-29T00:44:43;11.83;75.86
584;HTU21D;27024;54.068;12.116;2022-07-29T00:47:11;11.69;76.60
584;HTU21D;27024;54.068;12.116;2022-07-29T00:49:41;11.81;76.20
584;HTU21D;27024;54.068;12.116;2022-07-29T00:52:10;11.81;76.15
584;HTU21D;27024;54.068;12.116;2022-07-29T00:54:38;11.79;76.33
584;HTU21D;27024;54.068;12.116;2022-07-29T00:57:10;11.62;77.18
584;HTU21D;27024;54.068;12.116;2022-07-29T00:59:37;11.71;76.79
584;HTU21D;27024;54.068;12.116;2022-07-29T01:02:05;11.53;77.49
584;HTU21D;27024;54.068;12.116;2022-07-29T01:04:32;11.58;77.08
584;HTU21D;27024;54.068;12.116;2022-07-29T01:07:01;11.56;76.92
584;HTU21D;27024;54.068;12.116;2022-07-29T01:09:31;11.51;77.24
584;HTU21D;27024;54.068;12.116;2022-07-29T01:12:18;11.55;77.04
584;HTU21D;27024;54.068;12.116;2022-07-29T01:14:46;11.49;77.09
584;HTU21D;27024;54.068;12.116;2022-07-29T01:17:44;11.48;77.17
584;HTU21D;27024;54.068;12.116;2022-07-29T01:29:11;11.30;77.89
584;HTU21D;27024;54.068;12.116;2022-07-29T01:39:37;11.24;77.99
584;HTU21D;27024;54.068;12.116;2022-07-29T01:44:48;11.11;78.41
584;HTU21D;27024;54.068;12.116;2022-07-29T01:47:20;11.09;78.61
584;HTU21D;27024;54.068;12.116;2022-07-29T01:49:50;11.07;78.47
584;HTU21D;27024;54.068;12.116;2022-07-29T01:52:38;11.05;78.61
584;HTU21D;27024;54.068;12.116;2022-07-29T01:55:16;11.11;78.49
584;HTU21D;27024;54.068;12.116;2022-07-29T01:57:46;11.12;78.38
584;HTU21D;27024;54.068;12.116;2022-07-29T02:00:15;11.16;78.26
584;HTU21D;27024;54.068;12.116;2022-07-29T02:02:44;11.14;78.50
584;HTU21D;27024;54.068;12.116;2022-07-29T02:05:14;11.10;78.78
584;HTU21D;27024;54.068;12.116;2022-07-29T02:07:42;11.14;78.64
584;HTU21D;27024;54.068;12.116;2022-07-29T02:10:11;11.14;78.82
584;HTU21D;27024;54.068;12.116;2022-07-29T02:12:40;11.23;78.53
584;HTU21D;27024;54.068;12.116;2022-07-29T02:15:16;11.19;78.31
584;HTU21D;27024;54.068;12.116;2022-07-29T02:17:46;11.19;78.72
584;HTU21D;27024;54.068;12.116;2022-07-29T02:20:15;11.16;78.95
584;HTU21D;27024;54.068;12.116;2022-07-29T02:22:44;11.16;79.17
584;HTU21D;27024;54.068;12.116;2022-07-29T02:25:12;11.15;79.01
584;HTU21D;27024;54.068;12.116;2022-07-29T02:27:41;11.07;79.44
584;HTU21D;27024;54.068;12.116;2022-07-29T02:30:09;11.09;79.38
584;HTU21D;27024;54.068;12.116;2022-07-29T02:32:39;11.05;79.40
584;HTU21D;27024;54.068;12.116;2022-07-29T02:35:08;11.07;79.40
584;HTU21D;27024;54.068;12.116;2022-07-29T02:37:37;11.02;79.43
584;HTU21D;27024;54.068;12.116;2022-07-29T02:40:06;11.02;79.22
584;HTU21D;27024;54.068;12.116;2022-07-29T02:42:36;10.95;79.26
584;HTU21D;27024;54.068;12.116;2022-07-29T02:45:05;10.93;79.30
584;HTU21D;27024;54.068;12.116;2022-07-29T02:47:41;10.89;79.36
584;HTU21D;27024;54.068;12.116;2022-07-29T02:50:30;10.85;79.31
584;HTU21D;27024;54.068;12.116;2022-07-29T02:53:02;10.87;79.27
584;HTU21D;27024;54.068;12.116;2022-07-29T02:55:37;10.87;79.26
584;HTU21D;27024;54.068;12.116;2022-07-29T03:00:37;10.94;79.29
584;HTU21D;27024;54.068;12.116;2022-07-29T03:03:09;10.90;79.29
584;HTU21D;27024;54.068;12.116;2022-07-29T03:05:37;10.94;79.19
584;HTU21D;27024;54.068;12.116;2022-07-29T03:08:07;10.86;79.28
584;HTU21D;27024;54.068;12.116;2022-07-29T03:10:37;10.87;79.51
584;HTU21D;27024;54.068;12.116;2022-07-29T03:13:05;10.92;79.51
584;HTU21D;27024;54.068;12.116;2022-07-29T03:15:34;10.99;79.70
584;HTU21D;27024;54.068;12.116;2022-07-29T03:18:02;11.07;79.30
584;HTU21D;27024;54.068;12.116;2022-07-29T03:20:30;11.03;79.88
584;HTU21D;27024;54.068;12.116;2022-07-29T03:22:57;11.15;79.70
584;HTU21D;27024;54.068;12.116;2022-07-29T03:25:24;11.15;79.61
584;HTU21D;27024;54.068;12.116;2022-07-29T03:27:51;11.14;79.83
584;HTU21D;27024;54.068;12.116;2022-07-29T03:30:18;11.17;79.42
584;HTU21D;27024;54.068;12.116;2022-07-29T03:32:48;11.11;79.52
584;HTU21D;27024;54.068;12.116;2022-07-29T03:35:19;11.27;79.33
584;HTU21D;27024;54.068;12.116;2022-07-29T03:37:46;11.26;79.21
584;HTU21D;27024;54.068;12.116;2022-07-29T03:40:20;11.19;79.31
584;HTU21D;27024;54.068;12.116;2022-07-29T03:42:49;11.25;79.30
584;HTU21D;27024;54.068;12.116;2022-07-29T03:45:18;11.38;79.44
584;HTU21D;27024;54.068;12.116;2022-07-29T03:47:49;11.36;79.39
584;HTU21D;27024;54.068;12.116;2022-07-29T03:50:22;11.38;79.72
584;HTU21D;27024;54.068;12.116;2022-07-29T03:52:49;11.67;79.53
584;HTU21D;27024;54.068;12.116;2022-07-29T03:55:16;11.75;79.36
584;HTU21D;27024;54.068;12.116;2022-07-29T03:57:44;11.81;79.39
584;HTU21D;27024;54.068;12.116;2022-07-29T04:00:12;11.88;79.40
584;HTU21D;27024;54.068;12.116;2022-07-29T04:02:39;12.00;79.01
584;HTU21D;27024;54.068;12.116;2022-07-29T04:05:12;12.13;78.44
584;HTU21D;27024;54.068;12.116;2022-07-29T04:07:40;12.21;78.22
584;HTU21D;27024;54.068;12.116;2022-07-29T04:10:07;12.21;78.36
584;HTU21D;27024;54.068;12.116;2022-07-29T04:12:35;12.31;78.16
584;HTU21D;27024;54.068;12.116;2022-07-29T04:15:03;12.43;77.83
584;HTU21D;27024;54.068;12.116;2022-07-29T04:17:30;12.58;77.37
584;HTU21D;27024;54.068;12.116;2022-07-29T04:19:57;12.63;77.40
584;HTU21D;27024;54.068;12.116;2022-07-29T04:22:24;12.73;76.97
584;HTU21D;27024;54.068;12.116;2022-07-29T04:24:52;12.73;77.25
584;HTU21D;27024;54.068;12.116;2022-07-29T04:27:19;12.82;76.92
584;HTU21D;27024;54.068;12.116;2022-07-29T04:29:46;12.88;76.51
584;HTU21D;27024;54.068;12.116;2022-07-29T04:32:22;12.99;76.12
584;HTU21D;27024;54.068;12.116;2022-07-29T04:34:49;12.97;76.35
584;HTU21D;27024;54.068;12.116;2022-07-29T04:37:16;13.07;76.05
584;HTU21D;27024;54.068;12.116;2022-07-29T04:39:43;13.18;75.70
584;HTU21D;27024;54.068;12.116;2022-07-29T04:42:09;13.31;75.01
584;HTU21D;27024;54.068;12.116;2022-07-29T04:44:36;13.38;74.79
584;HTU21D;27024;54.068;12.116;2022-07-29T04:47:07;13.48;74.62
584;HTU21D;27024;54.068;12.116;2022-07-29T04:49:37;13.64;74.27
584;HTU21D;27024;54.068;12.116;2022-07-29T04:52:05;13.83;73.33
584;HTU21D;27024;54.068;12.116;2022-07-29T04:54:32;14.00;72.82
584;HTU21D;27024;54.068;12.116;2022-07-29T04:56:59;14.14;72.68
584;HTU21D;27024;54.068;12.116;2022-07-29T04:59:26;14.13;72.38
584;HTU21D;27024;54.068;12.116;2022-07-29T05:01:53;14.12;72.94
584;HTU21D;27024;54.068;12.116;2022-07-29T05:04:20;14.07;73.44
584;HTU21D;27024;54.068;12.116;2022-07-29T05:06:47;14.12;73.48
584;HTU21D;27024;54.068;12.116;2022-07-29T05:09:14;14.17;73.73
584;HTU21D;27024;54.068;12.116;2022-07-29T05:11:41;14.11;74.07
584;HTU21D;27024;54.068;12.116;2022-07-29T05:14:08;14.27;73.73
584;HTU21D;27024;54.068;12.116;2022-07-29T05:16:35;14.22;73.66
584;HTU21D;27024;54.068;12.116;2022-07-29T05:19:01;14.36;73.80
584;HTU21D;27024;54.068;12.116;2022-07-29T05:21:28;14.39;73.80
584;HTU21D;27024;54.068;12.116;2022-07-29T05:23:55;14.52;73.42
584;HTU21D;27024;54.068;12.116;2022-07-29T05:26:22;14.66;72.70
584;HTU21D;27024;54.068;12.116;2022-07-29T05:28:49;14.94;71.66
584;HTU21D;27024;54.068;12.116;2022-07-29T05:31:15;15.32;70.66
584;HTU21D;27024;54.068;12.116;2022-07-29T05:33:43;15.66;69.71
584;HTU21D;27024;54.068;12.116;2022-07-29T05:36:09;16.12;67.60
584;HTU21D;27024;54.068;12.116;2022-07-29T05:38:37;16.51;65.65
584;HTU21D;27024;54.068;12.116;2022-07-29T05:41:04;16.88;62.78
584;HTU21D;27024;54.068;12.116;2022-07-29T05:43:31;16.62;62.99
584;HTU21D;27024;54.068;12.116;2022-07-29T05:45:58;16.63;63.15
584;HTU21D;27024;54.068;12.116;2022-07-29T05:48:25;16.62;63.18
584;HTU21D;27024;54.068;12.116;2022-07-29T05:50:52;16.27;63.89
584;HTU21D;27024;54.068;12.116;2022-07-29T05:53:19;16.52;62.98
584;HTU21D;27024;54.068;12.116;2022-07-29T05:55:47;17.14;61.08
584;HTU21D;27024;54.068;12.116;2022-07-29T05:58:14;17.23;61.50
584;HTU21D;27024;54.068;12.116;2022-07-29T06:00:41;17.10;60.90
584;HTU21D;27024;54.068;12.116;2022-07-29T06:03:08;16.79;61.50
584;HTU21D;27024;54.068;12.116;2022-07-29T06:05:35;16.81;62.51
584;HTU21D;27024;54.068;12.116;2022-07-29T06:08:02;17.07;61.53
584;HTU21D;27024;54.068;12.116;2022-07-29T06:10:29;17.68;60.22
584;HTU21D;27024;54.068;12.116;2022-07-29T06:12:55;18.13;58.97
584;HTU21D;27024;54.068;12.116;2022-07-29T06:15:22;18.55;57.27
584;HTU21D;27024;54.068;12.116;2022-07-29T06:17:49;17.81;59.77
584;HTU21D;27024;54.068;12.116;2022-07-29T06:20:27;17.77;60.15
584;HTU21D;27024;54.068;12.116;2022-07-29T06:22:57;17.87;59.46
584;HTU21D;27024;54.068;12.116;2022-07-29T06:25:24;17.75;60.34
584;HTU21D;27024;54.068;12.116;2022-07-29T06:27:51;17.83;60.12
584;HTU21D;27024;54.068;12.116;2022-07-29T06:30:18;18.44;58.66
584;HTU21D;27024;54.068;12.116;2022-07-29T06:32:45;19.01;57.58
584;HTU21D;27024;54.068;12.116;2022-07-29T06:35:12;19.10;57.15
584;HTU21D;27024;54.068;12.116;2022-07-29T06:37:59;19.41;56.66
584;HTU21D;27024;54.068;12.116;2022-07-29T06:40:26;19.57;55.55
584;HTU21D;27024;54.068;12.116;2022-07-29T06:43:11;19.71;53.48
584;HTU21D;27024;54.068;12.116;2022-07-29T06:45:38;19.75;54.14
584;HTU21D;27024;54.068;12.116;2022-07-29T06:48:09;19.82;52.34
584;HTU21D;27024;54.068;12.116;2022-07-29T06:50:36;19.99;52.89
584;HTU21D;27024;54.068;12.116;2022-07-29T06:53:03;19.46;53.62
584;HTU21D;27024;54.068;12.116;2022-07-29T06:55:30;19.38;53.75
584;HTU21D;27024;54.068;12.116;2022-07-29T06:57:57;20.34;51.66
584;HTU21D;27024;54.068;12.116;2022-07-29T07:00:24;20.27;50.79
584;HTU21D;27024;54.068;12.116;2022-07-29T07:02:50;21.19;49.25
584;HTU21D;27024;54.068;12.116;2022-07-29T07:05:17;21.55;48.72
584;HTU21D;27024;54.068;12.116;2022-07-29T07:07:44;21.21;47.15
584;HTU21D;27024;54.068;12.116;2022-07-29T07:10:11;21.43;46.99
584;HTU21D;27024;54.068;12.116;2022-07-29T07:12:38;22.31;45.57
584;HTU21D;27024;54.068;12.116;2022-07-29T07:15:05;22.34;44.93
584;HTU21D;27024;54.068;12.116;2022-07-29T07:17:32;22.98;44.29
584;HTU21D;27024;54.068;12.116;2022-07-29T07:19:59;22.93;43.47
584;HTU21D;27024;54.068;12.116;2022-07-29T07:22:26;23.74;42.22
584;HTU21D;27024;54.068;12.116;2022-07-29T07:24:52;23.88;41.61
584;HTU21D;27024;54.068;12.116;2022-07-29T07:27:19;23.64;41.88
584;HTU21D;27024;54.068;12.116;2022-07-29T07:29:46;24.17;40.79
584;HTU21D;27024;54.068;12.116;2022-07-29T07:32:13;24.23;41.97
584;HTU21D;27024;54.068;12.116;2022-07-29T07:34:43;23.91;41.92
584;HTU21D;27024;54.068;12.116;2022-07-29T07:37:10;24.56;41.75
584;HTU21D;27024;54.068;12.116;2022-07-29T07:39:37;24.47;39.89
584;HTU21D;27024;54.068;12.116;2022-07-29T07:42:04;24.54;39.47
584;HTU21D;27024;54.068;12.116;2022-07-29T07:44:31;24.69;40.53
584;HTU21D;27024;54.068;12.116;2022-07-29T07:47:12;25.12;39.87
584;HTU21D;27024;54.068;12.116;2022-07-29T07:49:38;25.29;39.49
584;HTU21D;27024;54.068;12.116;2022-07-29T07:52:07;25.10;39.49
584;HTU21D;27024;54.068;12.116;2022-07-29T07:54:34;24.45;40.26
584;HTU21D;27024;54.068;12.116;2022-07-29T07:57:01;24.25;41.45
584;HTU21D;27024;54.068;12.116;2022-07-29T07:59:27;24.25;41.91
584;HTU21D;27024;54.068;12.116;2022-07-29T08:01:54;23.47;42.26
584;HTU21D;27024;54.068;12.116;2022-07-29T08:04:23;23.68;42.09
584;HTU21D;27024;54.068;12.116;2022-07-29T08:06:55;23.71;41.45
584;HTU21D;27024;54.068;12.116;2022-07-29T08:09:23;23.41;41.68
584;HTU21D;27024;54.068;12.116;2022-07-29T08:11:56;23.10;43.34
584;HTU21D;27024;54.068;12.116;2022-07-29T08:14:24;22.80;43.83
584;HTU21D;27024;54.068;12.116;2022-07-29T08:16:51;22.70;44.52
584;HTU21D;27024;54.068;12.116;2022-07-29T08:19:18;22.95;43.51
584;HTU21D;27024;54.068;12.116;2022-07-29T08:21:45;23.05;43.81
584;HTU21D;27024;54.068;12.116;2022-07-29T08:24:12;23.10;43.58
584;HTU21D;27024;54.068;12.116;2022-07-29T08:26:57;23.03;44.16
584;HTU21D;27024;54.068;12.116;2022-07-29T08:29:24;22.95;44.85
584;HTU21D;27024;54.068;12.116;2022-07-29T08:31:50;22.87;44.58
584;HTU21D;27024;54.068;12.116;2022-07-29T08:34:18;22.61;44.41
584;HTU21D;27024;54.068;12.116;2022-07-29T08:36:53;22.82;44.77
584;HTU21D;27024;54.068;12.116;2022-07-29T08:39:20;22.63;45.28
584;HTU21D;27024;54.068;12.116;2022-07-29T08:41:47;22.54;45.09
584;HTU21D;27024;54.068;12.116;2022-07-29T08:44:23;22.92;45.07
584;HTU21D;27024;54.068;12.116;2022-07-29T08:46:56;22.91;44.31
584;HTU21D;27024;54.068;12.116;2022-07-29T08:49:23;22.82;44.67
584;HTU21D;27024;54.068;12.116;2022-07-29T08:51:51;23.18;43.25
584;HTU21D;27024;54.068;12.116;2022-07-29T08:54:18;23.56;44.71
584;HTU21D;27024;54.068;12.116;2022-07-29T08:56:48;23.88;42.22
584;HTU21D;27024;54.068;12.116;2022-07-29T08:59:19;23.80;41.84
584;HTU21D;27024;54.068;12.116;2022-07-29T09:01:52;23.94;42.92
584;HTU21D;27024;54.068;12.116;2022-07-29T09:04:20;24.14;40.71
584;HTU21D;27024;54.068;12.116;2022-07-29T09:06:51;24.27;40.25
584;HTU21D;27024;54.068;12.116;2022-07-29T09:09:19;23.72;39.36
584;HTU21D;27024;54.068;12.116;2022-07-29T09:11:46;23.74;38.74
584;HTU21D;27024;54.068;12.116;2022-07-29T09:14:13;24.11;40.05
584;HTU21D;27024;54.068;12.116;2022-07-29T09:16:52;23.82;38.70
584;HTU21D;27024;54.068;12.116;2022-07-29T09:21:48;24.60;38.84
584;HTU21D;27024;54.068;12.116;2022-07-29T09:24:45;24.33;38.24
584;HTU21D;27024;54.068;12.116;2022-07-29T09:27:25;24.47;37.77
584;HTU21D;27024;54.068;12.116;2022-07-29T09:30:00;24.60;38.27
584;HTU21D;27024;54.068;12.116;2022-07-29T09:32:27;24.43;38.58
584;HTU21D;27024;54.068;12.116;2022-07-29T09:35:20;24.46;36.74
584;HTU21D;27024;54.068;12.116;2022-07-29T09:37:48;24.16;37.84
584;HTU21D;27024;54.068;12.116;2022-07-29T09:40:20;24.08;38.74
584;HTU21D;27024;54.068;12.116;2022-07-29T09:42:48;23.90;38.87
584;HTU21D;27024;54.068;12.116;2022-07-29T09:45:29;23.82;39.67
584;HTU21D;27024;54.068;12.116;2022-07-29T09:47:56;24.09;38.75
584;HTU21D;27024;54.068;12.116;2022-07-29T09:50:40;24.17;39.12
584;HTU21D;27024;54.068;12.116;2022-07-29T09:53:08;24.13;39.58
584;HTU21D;27024;54.068;12.116;2022-07-29T09:55:51;24.13;38.59
584;HTU21D;27024;54.068;12.116;2022-07-29T09:58:20;23.99;38.62
584;HTU21D;27024;54.068;12.116;2022-07-29T10:00:50;24.21;39.20
584;HTU21D;27024;54.068;12.116;2022-07-29T10:03:18;24.33;40.48
584;HTU21D;27024;54.068;12.116;2022-07-29T10:05:48;24.63;40.19
584;HTU21D;27024;54.068;12.116;2022-07-29T10:08:29;24.26;38.90
584;HTU21D;27024;54.068;12.116;2022-07-29T10:11:12;24.31;38.88
584;HTU21D;27024;54.068;12.116;2022-07-29T10:13:41;24.16;38.60
584;HTU21D;27024;54.068;12.116;2022-07-29T10:16:08;24.38;39.61
584;HTU21D;27024;54.068;12.116;2022-07-29T10:18:38;24.42;38.40
584;HTU21D;27024;54.068;12.116;2022-07-29T10:21:05;24.74;37.88
584;HTU21D;27024;54.068;12.116;2022-07-29T10:23:34;24.60;37.59
584;HTU21D;27024;54.068;12.116;2022-07-29T10:26:13;25.37;36.60
584;HTU21D;27024;54.068;12.116;2022-07-29T10:28:41;26.40;35.15
584;HTU21D;27024;54.068;12.116;2022-07-29T10:31:15;26.64;33.66
584;HTU21D;27024;54.068;12.116;2022-07-29T10:34:35;27.20;34.15
584;HTU21D;27024;54.068;12.116;2022-07-29T10:39:36;27.85;31.84
584;HTU21D;27024;54.068;12.116;2022-07-29T10:42:21;27.73;31.63
584;HTU21D;27024;54.068;12.116;2022-07-29T10:44:59;27.20;32.31
584;HTU21D;27024;54.068;12.116;2022-07-29T10:47:26;27.37;33.34
584;HTU21D;27024;54.068;12.116;2022-07-29T10:50:04;27.38;34.08
584;HTU21D;27024;54.068;12.116;2022-07-29T10:53:03;26.86;34.02
584;HTU21D;27024;54.068;12.116;2022-07-29T10:55:39;26.81;35.06
584;HTU21D;27024;54.068;12.116;2022-07-29T10:58:18;26.43;34.16
584;HTU21D;27024;54.068;12.116;2022-07-29T11:00:48;26.63;34.40
584;HTU21D;27024;54.068;12.116;2022-07-29T11:03:47;26.91;35.70
584;HTU21D;27024;54.068;12.116;2022-07-29T11:06:19;26.58;34.94
584;HTU21D;27024;54.068;12.116;2022-07-29T11:09:15;26.34;35.15
584;HTU21D;27024;54.068;12.116;2022-07-29T11:11:45;26.25;35.11
584;HTU21D;27024;54.068;12.116;2022-07-29T11:15:00;26.51;36.27
584;HTU21D;27024;54.068;12.116;2022-07-29T11:17:29;26.26;36.90
584;HTU21D;27024;54.068;12.116;2022-07-29T11:31:31;25.46;37.88
584;HTU21D;27024;54.068;12.116;2022-07-29T11:34:30;25.42;36.59
584;HTU21D;27024;54.068;12.116;2022-07-29T11:39:34;25.67;35.46
584;HTU21D;27024;54.068;12.116;2022-07-29T11:45:03;26.03;36.14
584;HTU21D;27024;54.068;12.116;2022-07-29T11:47:56;26.08;35.75
584;HTU21D;27024;54.068;12.116;2022-07-29T11:50:44;26.24;34.98
584;HTU21D;27024;54.068;12.116;2022-07-29T11:53:14;26.55;34.76
584;HTU21D;27024;54.068;12.116;2022-07-29T11:55:42;26.41;35.35
584;HTU21D;27024;54.068;12.116;2022-07-29T11:58:22;26.65;36.16
584;HTU21D;27024;54.068;12.116;2022-07-29T12:00:52;27.00;35.45
584;HTU21D;27024;54.068;12.116;2022-07-29T12:03:26;27.29;35.44
584;HTU21D;27024;54.068;12.116;2022-07-29T12:06:01;27.12;34.07
584;HTU21D;27024;54.068;12.116;2022-07-29T12:08:28;26.75;34.04
584;HTU21D;27024;54.068;12.116;2022-07-29T12:10:55;26.77;34.62
584;HTU21D;27024;54.068;12.116;2022-07-29T12:13:22;26.93;33.76
584;HTU21D;27024;54.068;12.116;2022-07-29T12:16:04;27.07;35.16
584;HTU21D;27024;54.068;12.116;2022-07-29T12:18:31;26.91;35.84
584;HTU21D;27024;54.068;12.116;2022-07-29T12:20:59;26.40;35.28
584;HTU21D;27024;54.068;12.116;2022-07-29T12:23:33;26.21;35.74
584;HTU21D;27024;54.068;12.116;2022-07-29T12:26:04;26.25;34.82
584;HTU21D;27024;54.068;12.116;2022-07-29T12:28:37;26.03;35.44
584;HTU21D;27024;54.068;12.116;2022-07-29T12:31:05;26.30;35.82
584;HTU21D;27024;54.068;12.116;2022-07-29T12:33:34;26.22;36.17
584;HTU21D;27024;54.068;12.116;2022-07-29T12:36:02;26.11;35.59
584;HTU21D;27024;54.068;12.116;2022-07-29T12:38:40;26.06;35.59
584;HTU21D;27024;54.068;12.116;2022-07-29T12:41:07;25.94;35.25
584;HTU21D;27024;54.068;12.116;2022-07-29T12:43:35;25.88;36.12
584;HTU21D;27024;54.068;12.116;2022-07-29T12:46:13;25.54;35.97
584;HTU21D;27024;54.068;12.116;2022-07-29T12:48:42;25.48;35.78
584;HTU21D;27024;54.068;12.116;2022-07-29T12:51:10;25.61;36.22
584;HTU21D;27024;54.068;12.116;2022-07-29T12:53:38;25.60;35.92
584;HTU21D;27024;54.068;12.116;2022-07-29T12:56:06;25.79;36.05
584;HTU21D;27024;54.068;12.116;2022-07-29T12:59:20;25.77;34.02
584;HTU21D;27024;54.068;12.116;2022-07-29T13:01:50;25.90;32.63
584;HTU21D;27024;54.068;12.116;2022-07-29T13:04:30;26.09;31.75
584;HTU21D;27024;54.068;12.116;2022-07-29T13:07:01;26.33;31.33
584;HTU21D;27024;54.068;12.116;2022-07-29T13:10:16;26.45;31.66
584;HTU21D;27024;54.068;12.116;2022-07-29T13:13:07;26.86;30.19
584;HTU21D;27024;54.068;12.116;2022-07-29T13:15:45;27.16;29.58
584;HTU21D;27024;54.068;12.116;2022-07-29T13:18:32;27.30;29.39
584;HTU21D;27024;54.068;12.116;2022-07-29T13:21:15;27.27;29.36
584;HTU21D;27024;54.068;12.116;2022-07-29T13:23:44;27.14;30.13
584;HTU21D;27024;54.068;12.116;2022-07-29T13:26:11;26.97;29.50
584;HTU21D;27024;54.068;12.116;2022-07-29T13:28:38;26.93;29.23
584;HTU21D;27024;54.068;12.116;2022-07-29T13:31:05;27.13;29.75
584;HTU21D;27024;54.068;12.116;2022-07-29T13:33:32;26.92;30.01
584;HTU21D;27024;54.068;12.116;2022-07-29T13:35:58;27.49;28.51
584;HTU21D;27024;54.068;12.116;2022-07-29T13:38:25;27.41;27.78
584;HTU21D;27024;54.068;12.116;2022-07-29T13:40:57;27.49;27.13
584;HTU21D;27024;54.068;12.116;2022-07-29T13:43:24;27.41;27.49
584;HTU21D;27024;54.068;12.116;2022-07-29T13:45:51;27.31;29.81
584;HTU21D;27024;54.068;12.116;2022-07-29T13:48:18;27.17;28.60
584;HTU21D;27024;54.068;12.116;2022-07-29T13:50:45;27.15;28.82
584;HTU21D;27024;54.068;12.116;2022-07-29T13:53:13;27.65;28.27
584;HTU21D;27024;54.068;12.116;2022-07-29T13:55:44;27.79;27.48
584;HTU21D;27024;54.068;12.116;2022-07-29T13:58:10;27.78;27.30
584;HTU21D;27024;54.068;12.116;2022-07-29T14:00:37;27.67;30.87
584;HTU21D;27024;54.068;12.116;2022-07-29T14:03:04;27.68;31.80
584;HTU21D;27024;54.068;12.116;2022-07-29T14:05:32;27.51;33.53
584;HTU21D;27024;54.068;12.116;2022-07-29T14:07:59;27.22;33.19
584;HTU21D;27024;54.068;12.116;2022-07-29T14:10:26;26.98;35.06
584;HTU21D;27024;54.068;12.116;2022-07-29T14:12:52;26.46;37.05
584;HTU21D;27024;54.068;12.116;2022-07-29T14:15:19;26.64;36.76
584;HTU21D;27024;54.068;12.116;2022-07-29T14:17:46;26.35;37.53
584;HTU21D;27024;54.068;12.116;2022-07-29T14:20:13;26.32;37.86
584;HTU21D;27024;54.068;12.116;2022-07-29T14:22:42;26.17;38.49
584;HTU21D;27024;54.068;12.116;2022-07-29T14:25:10;26.53;38.12
584;HTU21D;27024;54.068;12.116;2022-07-29T14:27:42;26.48;37.88
584;HTU21D;27024;54.068;12.116;2022-07-29T14:30:10;26.26;37.42
584;HTU21D;27024;54.068;12.116;2022-07-29T14:32:37;26.21;36.90
584;HTU21D;27024;54.068;12.116;2022-07-29T14:35:05;26.48;35.47
584;HTU21D;27024;54.068;12.116;2022-07-29T14:37:32;26.49;36.12
584;HTU21D;27024;54.068;12.116;2022-07-29T14:40:07;27.02;35.40
584;HTU21D;27024;54.068;12.116;2022-07-29T14:42:34;27.20;34.79
584;HTU21D;27024;54.068;12.116;2022-07-29T14:45:04;27.72;33.23
584;HTU21D;27024;54.068;12.116;2022-07-29T14:47:31;27.61;33.32
584;HTU21D;27024;54.068;12.116;2022-07-29T14:49:58;27.79;32.84
584;HTU21D;27024;54.068;12.116;2022-07-29T14:52:24;27.52;33.37
584;HTU21D;27024;54.068;12.116;2022-07-29T14:54:52;27.17;34.02
584;HTU21D;27024;54.068;12.116;2022-07-29T14:57:18;27.26;33.14
584;HTU21D;27024;54.068;12.116;2022-07-29T14:59:46;27.58;32.37
584;HTU21D;27024;54.068;12.116;2022-07-29T15:02:13;27.71;32.84
584;HTU21D;27024;54.068;12.116;2022-07-29T15:04:39;27.35;33.02
584;HTU21D;27024;54.068;12.116;2022-07-29T15:07:07;27.50;32.93
584;HTU21D;27024;54.068;12.116;2022-07-29T15:09:34;27.31;33.49
584;HTU21D;27024;54.068;12.116;2022-07-29T15:12:07;27.05;35.48
584;HTU21D;27024;54.068;12.116;2022-07-29T15:14:34;27.30;35.23
584;HTU21D;27024;54.068;12.116;2022-07-29T15:17:01;27.20;35.33
584;HTU21D;27024;54.068;12.116;2022-07-29T15:19:30;26.84;35.84
584;HTU21D;27024;54.068;12.116;2022-07-29T15:21:57;27.01;35.66
584;HTU21D;27024;54.068;12.116;2022-07-29T15:24:25;27.24;35.15
584;HTU21D;27024;54.068;12.116;2022-07-29T15:26:53;27.07;34.92
584;HTU21D;27024;54.068;12.116;2022-07-29T15:29:20;26.96;35.13
584;HTU21D;27024;54.068;12.116;2022-07-29T15:31:47;26.45;35.93
584;HTU21D;27024;54.068;12.116;2022-07-29T15:34:15;26.62;35.57
584;HTU21D;27024;54.068;12.116;2022-07-29T15:36:42;26.68;35.44
584;HTU21D;27024;54.068;12.116;2022-07-29T15:39:19;27.38;33.84
584;HTU21D;27024;54.068;12.116;2022-07-29T15:41:46;27.35;33.86
584;HTU21D;27024;54.068;12.116;2022-07-29T15:44:14;27.71;33.09
584;HTU21D;27024;54.068;12.116;2022-07-29T15:46:41;27.88;33.25
584;HTU21D;27024;54.068;12.116;2022-07-29T15:49:27;28.71;31.92
584;HTU21D;27024;54.068;12.116;2022-07-29T15:52:18;27.99;32.67
584;HTU21D;27024;54.068;12.116;2022-07-29T15:54:53;27.93;32.83
584;HTU21D;27024;54.068;12.116;2022-07-29T15:57:21;27.56;33.77
584;HTU21D;27024;54.068;12.116;2022-07-29T15:59:48;27.49;34.07
584;HTU21D;27024;54.068;12.116;2022-07-29T16:02:15;27.52;33.47
584;HTU21D;27024;54.068;12.116;2022-07-29T16:04:43;27.88;33.01
584;HTU21D;27024;54.068;12.116;2022-07-29T16:07:10;27.57;33.76
584;HTU21D;27024;54.068;12.116;2022-07-29T16:09:37;27.49;34.05
584;HTU21D;27024;54.068;12.116;2022-07-29T16:12:04;27.17;35.56
584;HTU21D;27024;54.068;12.116;2022-07-29T16:14:42;27.07;36.48
584;HTU21D;27024;54.068;12.116;2022-07-29T16:17:10;26.57;37.17
584;HTU21D;27024;54.068;12.116;2022-07-29T16:19:41;26.24;38.22
584;HTU21D;27024;54.068;12.116;2022-07-29T16:22:09;25.90;39.41
584;HTU21D;27024;54.068;12.116;2022-07-29T16:24:36;25.88;39.78
584;HTU21D;27024;54.068;12.116;2022-07-29T16:27:04;25.71;40.02
584;HTU21D;27024;54.068;12.116;2022-07-29T16:29:31;25.57;40.82
584;HTU21D;27024;54.068;12.116;2022-07-29T16:31:57;25.44;40.68
584;HTU21D;27024;54.068;12.116;2022-07-29T16:34:24;25.29;41.60